Eviapetrol IV — SVBT7 — position and weather

sailwx.info

Track history (hours):
 
Tides and Currents Weather Stations Pressure Air Temp Water Temp Dewpoint Dewpoint Depression Visibility Wind Speed Wind Dir Waves Ship Positions

Eviapetrol IV

Last reported at 2017-Sep-20 19:36 UTC. Time now 2017-Sep-20 22:06 UTC.
Position N 37°54' E 023°08'.

Length 92 m; draft 4.6 m.

Type: Tanker. MMSI: 241262000.

Date/timePositionNaut miles runAvg speedWind from/ knotsBaromVisibWave heightAir tempDewpointWater temp
2017-Sep-20 19:36N 37°54' E 023°08'210.1
2017-Sep-20 19:24N 37°54' E 023°11'511.7
2017-Sep-20 18:58N 37°52' E 023°17'611.9
2017-Sep-20 18:30N 37°51' E 023°24'612.0
2017-Sep-20 18:00N 37°49' E 023°31'611.9
2017-Sep-20 17:30N 37°48' E 023°38'510.2
2017-Sep-20 17:00N 37°44' E 023°43'612.0
2017-Sep-20 16:30N 37°39' E 023°46'612.1
2017-Sep-20 16:00N 37°34' E 023°51'  
2017-Sep-18 06:07N 35°45' E 024°43'212.6
2017-Sep-18 05:56N 35°47' E 024°41'512.4
2017-Sep-18 05:30N 35°51' E 024°37'612.1
2017-Sep-18 05:00N 35°56' E 024°32'612.1
2017-Sep-18 04:30N 36°02' E 024°30'1312.3
2017-Sep-18 03:28N 36°14' E 024°24'7312.3
2017-Sep-17 21:29N 37°22' E 023°51'612.3
2017-Sep-17 21:00N 37°27' E 023°48'612.0
2017-Sep-17 20:30N 37°33' E 023°46'612.2
2017-Sep-17 20:00N 37°39' E 023°43'612.1
2017-Sep-17 19:30N 37°44' E 023°40'612.1
2017-Sep-17 19:00N 37°50' E 023°36'612.1
2017-Sep-17 18:30N 37°50' E 023°29'612.0
2017-Sep-17 18:00N 37°52' E 023°21'612.2
2017-Sep-17 17:30N 37°53' E 023°14'612.0
2017-Sep-17 17:01N 37°54' E 023°06'1 0.2
2017-Sep-17 12:03N 37°55' E 023°05'0 0.0
2017-Sep-17 11:52N 37°55' E 023°05'0 0.0
2017-Sep-17 11:27N 37°55' E 023°05'0 0.0
2017-Sep-17 10:55N 37°55' E 023°05'0 0.0
2017-Sep-17 10:30N 37°55' E 023°05'0 0.0
2017-Sep-17 10:00N 37°55' E 023°05'0 0.0
2017-Sep-17 09:30N 37°55' E 023°05'0 0.0
2017-Sep-17 09:00N 37°55' E 023°05'0 0.0
2017-Sep-17 08:26N 37°55' E 023°05'0 0.0
2017-Sep-17 08:00N 37°55' E 023°05'0 0.0
2017-Sep-17 07:30N 37°55' E 023°05'0 0.0
2017-Sep-17 05:22N 37°55' E 023°05'0 0.0
2017-Sep-17 05:00N 37°55' E 023°05'0 0.0
2017-Sep-17 04:29N 37°55' E 023°05'0 0.0
2017-Sep-17 03:17N 37°55' E 023°05'0 0.0
2017-Sep-17 03:01N 37°55' E 023°05'0 0.1
2017-Sep-16 22:22N 37°55' E 023°06'2 5.3
2017-Sep-16 21:53N 37°54' E 023°09'410.9
2017-Sep-16 21:30N 37°53' E 023°14'612.6
2017-Sep-16 21:00N 37°52' E 023°21'612.7
2017-Sep-16 20:31N 37°50' E 023°29'612.5
2017-Sep-16 20:00N 37°49' E 023°37'611.3
2017-Sep-16 19:31N 37°45' E 023°42'612.6
2017-Sep-16 19:00N 37°40' E 023°46'612.6
2017-Sep-16 18:30N 37°35' E 023°51'  
2017-Sep-13 21:01N 36°60' E 024°02'012.4
2017-Sep-13 21:00N 36°60' E 024°02'712.1
2017-Sep-13 20:27N 37°06' E 023°59'2012.1
2017-Sep-13 18:46N 37°25' E 023°50'412.1
2017-Sep-13 18:26N 37°29' E 023°48'512.1
2017-Sep-13 18:00N 37°34' E 023°46'611.8
2017-Sep-13 17:30N 37°39' E 023°43'612.2
2017-Sep-13 17:00N 37°45' E 023°40'612.3
2017-Sep-13 16:31N 37°50' E 023°36'612.1
2017-Sep-13 16:01N 37°56' E 023°35'4 8.4
2017-Sep-13 15:31N 38°00' E 023°33'1 2.6
2017-Sep-13 15:01N 38°01' E 023°32'1 2.0
2017-Sep-13 14:28N 38°02' E 023°32'0 0.1
2017-Sep-13 13:58N 38°02' E 023°32'0 0.0
2017-Sep-13 13:28N 38°02' E 023°32'0 0.0
2017-Sep-13 12:58N 38°02' E 023°32'0 0.0
2017-Sep-13 12:28N 38°02' E 023°32'0 0.0
2017-Sep-13 11:58N 38°02' E 023°32'0 0.0
2017-Sep-13 11:28N 38°02' E 023°32'0 0.0
2017-Sep-13 10:58N 38°02' E 023°32'0 0.1
2017-Sep-13 10:28N 38°02' E 023°32'0 0.1
2017-Sep-13 10:01N 38°02' E 023°32'2 3.9
2017-Sep-13 09:30N 38°01' E 023°33'2 1.7
2017-Sep-13 08:22N 38°01' E 023°36'0 0.0
2017-Sep-13 07:46N 38°01' E 023°36'0 0.0
2017-Sep-12 21:10N 38°01' E 023°36'0 0.0
2017-Sep-12 20:52N 38°01' E 023°36'0 0.0
2017-Sep-12 20:28N 38°01' E 023°36'0 0.0
2017-Sep-12 19:34N 38°01' E 023°36'0 0.1
2017-Sep-12 19:28N 38°01' E 023°36'0 0.0
2017-Sep-12 16:52N 38°01' E 023°36'0 0.0
2017-Sep-12 15:25N 38°01' E 023°36'0 0.0
2017-Sep-12 15:00N 38°01' E 023°36'2 3.6
2017-Sep-12 14:30N 38°00' E 023°34'3 7.0
2017-Sep-12 14:00N 37°57' E 023°35'2 4.7
2017-Sep-12 13:30N 37°55' E 023°36'510.5
2017-Sep-12 13:00N 37°50' E 023°39'612.7
2017-Sep-12 12:30N 37°45' E 023°43'612.5
2017-Sep-12 12:00N 37°39' E 023°46'  
Track history (hours):
 
Tides and Currents Weather Stations Pressure Air Temp Water Temp Dewpoint Dewpoint Depression Visibility Wind Speed Wind Dir Waves Ship Positions

Eviapetrol IV

Last reported at 2017-Sep-20 19:36 UTC. Time now 2017-Sep-20 22:06 UTC.
Position N 37°54' E 023°08'.

Length 92 m; draft 4.6 m.

Type: Tanker. MMSI: 241262000.

Date/timePositionNaut miles runAvg speedWind from/ knotsBaromVisibWave heightAir tempDewpointWater temp
2017-Sep-20 19:36N 37°54' E 023°08'210.1
2017-Sep-20 19:24N 37°54' E 023°11'511.7
2017-Sep-20 18:58N 37°52' E 023°17'611.9
2017-Sep-20 18:30N 37°51' E 023°24'612.0
2017-Sep-20 18:00N 37°49' E 023°31'611.9
2017-Sep-20 17:30N 37°48' E 023°38'510.2
2017-Sep-20 17:00N 37°44' E 023°43'612.0
2017-Sep-20 16:30N 37°39' E 023°46'612.1
2017-Sep-20 16:00N 37°34' E 023°51'  
2017-Sep-18 06:07N 35°45' E 024°43'212.6
2017-Sep-18 05:56N 35°47' E 024°41'512.4
2017-Sep-18 05:30N 35°51' E 024°37'612.1
2017-Sep-18 05:00N 35°56' E 024°32'612.1
2017-Sep-18 04:30N 36°02' E 024°30'1312.3
2017-Sep-18 03:28N 36°14' E 024°24'7312.3
2017-Sep-17 21:29N 37°22' E 023°51'612.3
2017-Sep-17 21:00N 37°27' E 023°48'612.0
2017-Sep-17 20:30N 37°33' E 023°46'612.2
2017-Sep-17 20:00N 37°39' E 023°43'612.1
2017-Sep-17 19:30N 37°44' E 023°40'612.1
2017-Sep-17 19:00N 37°50' E 023°36'612.1
2017-Sep-17 18:30N 37°50' E 023°29'612.0
2017-Sep-17 18:00N 37°52' E 023°21'612.2
2017-Sep-17 17:30N 37°53' E 023°14'612.0
2017-Sep-17 17:01N 37°54' E 023°06'1 0.2
2017-Sep-17 12:03N 37°55' E 023°05'0 0.0
2017-Sep-17 11:52N 37°55' E 023°05'0 0.0
2017-Sep-17 11:27N 37°55' E 023°05'0 0.0
2017-Sep-17 10:55N 37°55' E 023°05'0 0.0
2017-Sep-17 10:30N 37°55' E 023°05'0 0.0
2017-Sep-17 10:00N 37°55' E 023°05'0 0.0
2017-Sep-17 09:30N 37°55' E 023°05'0 0.0
2017-Sep-17 09:00N 37°55' E 023°05'0 0.0
2017-Sep-17 08:26N 37°55' E 023°05'0 0.0
2017-Sep-17 08:00N 37°55' E 023°05'0 0.0
2017-Sep-17 07:30N 37°55' E 023°05'0 0.0
2017-Sep-17 05:22N 37°55' E 023°05'0 0.0
2017-Sep-17 05:00N 37°55' E 023°05'0 0.0
2017-Sep-17 04:29N 37°55' E 023°05'0 0.0
2017-Sep-17 03:17N 37°55' E 023°05'0 0.0
2017-Sep-17 03:01N 37°55' E 023°05'0 0.1
2017-Sep-16 22:22N 37°55' E 023°06'2 5.3
2017-Sep-16 21:53N 37°54' E 023°09'410.9
2017-Sep-16 21:30N 37°53' E 023°14'612.6
2017-Sep-16 21:00N 37°52' E 023°21'612.7
2017-Sep-16 20:31N 37°50' E 023°29'612.5
2017-Sep-16 20:00N 37°49' E 023°37'611.3
2017-Sep-16 19:31N 37°45' E 023°42'612.6
2017-Sep-16 19:00N 37°40' E 023°46'612.6
2017-Sep-16 18:30N 37°35' E 023°51'  
2017-Sep-13 21:01N 36°60' E 024°02'012.4
2017-Sep-13 21:00N 36°60' E 024°02'712.1
2017-Sep-13 20:27N 37°06' E 023°59'2012.1
2017-Sep-13 18:46N 37°25' E 023°50'412.1
2017-Sep-13 18:26N 37°29' E 023°48'512.1
2017-Sep-13 18:00N 37°34' E 023°46'611.8
2017-Sep-13 17:30N 37°39' E 023°43'612.2
2017-Sep-13 17:00N 37°45' E 023°40'612.3
2017-Sep-13 16:31N 37°50' E 023°36'612.1
2017-Sep-13 16:01N 37°56' E 023°35'4 8.4
2017-Sep-13 15:31N 38°00' E 023°33'1 2.6
2017-Sep-13 15:01N 38°01' E 023°32'1 2.0
2017-Sep-13 14:28N 38°02' E 023°32'0 0.1
2017-Sep-13 13:58N 38°02' E 023°32'0 0.0
2017-Sep-13 13:28N 38°02' E 023°32'0 0.0
2017-Sep-13 12:58N 38°02' E 023°32'0 0.0
2017-Sep-13 12:28N 38°02' E 023°32'0 0.0
2017-Sep-13 11:58N 38°02' E 023°32'0 0.0
2017-Sep-13 11:28N 38°02' E 023°32'0 0.0
2017-Sep-13 10:58N 38°02' E 023°32'0 0.1
2017-Sep-13 10:28N 38°02' E 023°32'0 0.1
2017-Sep-13 10:01N 38°02' E 023°32'2 3.9
2017-Sep-13 09:30N 38°01' E 023°33'2 1.7
2017-Sep-13 08:22N 38°01' E 023°36'0 0.0
2017-Sep-13 07:46N 38°01' E 023°36'0 0.0
2017-Sep-12 21:10N 38°01' E 023°36'0 0.0
2017-Sep-12 20:52N 38°01' E 023°36'0 0.0
2017-Sep-12 20:28N 38°01' E 023°36'0 0.0
2017-Sep-12 19:34N 38°01' E 023°36'0 0.1
2017-Sep-12 19:28N 38°01' E 023°36'0 0.0
2017-Sep-12 16:52N 38°01' E 023°36'0 0.0
2017-Sep-12 15:25N 38°01' E 023°36'0 0.0
2017-Sep-12 15:00N 38°01' E 023°36'2 3.6
2017-Sep-12 14:30N 38°00' E 023°34'3 7.0
2017-Sep-12 14:00N 37°57' E 023°35'2 4.7
2017-Sep-12 13:30N 37°55' E 023°36'510.5
2017-Sep-12 13:00N 37°50' E 023°39'612.7
2017-Sep-12 12:30N 37°45' E 023°43'612.5
2017-Sep-12 12:00N 37°39' E 023°46'  

Dump ship's entire track history